Time;durP1;ratioP1;P1;durP2;ratioP2;P2;SDS_P1;SDS_P2;PMS_P1;PMS_P2;Temp;Humidity;BMP_temperature;BMP_pressure;BME280_temperature;BME280_humidity;BME280_pressure;Samples;Min_cycle;Max_cycle;Signal;HPM_P1;HPM_P2
2022/10/15 00:00:40;;;;;;;10.45;3.70;;;;;;;;;;6113179;23;20059;-73
2022/10/15 00:03:06;;;;;;;10.30;3.15;;;;;;;;;;6112699;23;20156;-73
2022/10/15 00:05:32;;;;;;;14.07;3.70;;;;;;;;;;6113451;23;20037;-75
2022/10/15 00:07:59;;;;;;;7.65;3.17;;;;;;;;;;6112840;23;20010;-72
2022/10/15 00:10:25;;;;;;;7.05;3.28;;;;;;;;;;6111437;23;20002;-73
2022/10/15 00:12:51;;;;;;;10.98;3.72;;;;;;;;;;6113285;23;20017;-72
2022/10/15 00:15:17;;;;;;;6.57;3.20;;;;;;;;;;6112519;23;20006;-74
2022/10/15 00:17:43;;;;;;;8.07;3.13;;;;;;;;;;6115343;23;20033;-74
2022/10/15 00:20:10;;;;;;;8.57;3.28;;;;;;;;;;6115982;23;20077;-73
2022/10/15 00:22:36;;;;;;;5.95;3.05;;;;;;;;;;6114217;23;20002;-72
2022/10/15 00:25:03;;;;;;;8.82;3.33;;;;;;;;;;6115810;23;20053;-73
2022/10/15 00:27:29;;;;;;;6.72;2.92;;;;;;;;;;6116100;23;20253;-73
2022/10/15 00:29:56;;;;;;;12.85;3.10;;;;;;;;;;6115992;23;19998;-72
2022/10/15 00:32:22;;;;;;;6.72;2.83;;;;;;;;;;6114224;23;20363;-73
2022/10/15 00:34:48;;;;;;;7.97;2.90;;;;;;;;;;6115809;23;20292;-72
2022/10/15 00:37:16;;;;;;;7.78;2.97;;;;;;;;;;6116119;23;20006;-73
2022/10/15 00:39:42;;;;;;;7.40;3.38;;;;;;;;;;6115873;23;20036;-72
2022/10/15 00:42:09;;;;;;;10.43;3.28;;;;;;;;;;6114251;23;20009;-73
2022/10/15 00:44:49;;;;;;;10.85;4.22;;;;;;;;;;6115733;23;20010;-74
2022/10/15 00:47:27;;;;;;;5.57;3.40;;;;;;;;;;6115760;23;20010;-73
2022/10/15 00:49:59;;;;;;;5.60;3.08;;;;;;;;;;6116436;23;20006;-73
2022/10/15 00:52:29;;;;;;;10.60;3.35;;;;;;;;;;6090191;23;20617;-74
2022/10/15 00:54:59;;;;;;;5.18;2.95;;;;;;;;;;6116030;23;20010;-72
2022/10/15 00:57:25;;;;;;;8.60;3.42;;;;;;;;;;6113567;23;20664;-72
2022/10/15 00:59:53;;;;;;;7.95;3.47;;;;;;;;;;6089856;23;20407;-72
2022/10/15 01:02:20;;;;;;;10.50;3.67;;;;;;;;;;6112630;23;20010;-73
2022/10/15 01:04:47;;;;;;;6.47;3.15;;;;;;;;;;6112774;23;20006;-75
2022/10/15 01:07:13;;;;;;;9.43;3.45;;;;;;;;;;6111170;23;20018;-73
2022/10/15 01:09:41;;;;;;;8.60;3.20;;;;;;;;;;6113064;23;20595;-73
2022/10/15 01:12:11;;;;;;;6.10;3.08;;;;;;;;;;6113249;23;20010;-74
2022/10/15 01:14:43;;;;;;;10.00;3.63;;;;;;;;;;6109474;23;20270;-74
2022/10/15 01:17:32;;;;;;;7.80;3.60;;;;;;;;;;6113721;23;20534;-73
2022/10/15 01:19:58;;;;;;;5.07;3.00;;;;;;;;;;6112397;23;20012;-73
2022/10/15 01:22:43;;;;;;;12.27;4.50;;;;;;;;;;6113278;23;20467;-73
2022/10/15 01:25:29;;;;;;;16.13;5.10;;;;;;;;;;6110574;23;20009;-73
2022/10/15 01:28:15;;;;;;;15.88;5.30;;;;;;;;;;6113809;23;20219;-75
2022/10/15 01:30:44;;;;;;;7.95;4.22;;;;;;;;;;6114527;23;20479;-73
2022/10/15 01:33:15;;;;;;;12.25;5.35;;;;;;;;;;6114789;23;20010;-75
2022/10/15 01:35:47;;;;;;;11.93;4.23;;;;;;;;;;6113597;23;20006;-73
2022/10/15 01:38:13;;;;;;;7.03;4.00;;;;;;;;;;6114050;23;20081;-73
2022/10/15 01:40:45;;;;;;;9.65;3.75;;;;;;;;;;6114656;23;20016;-73
2022/10/15 01:43:16;;;;;;;9.18;3.78;;;;;;;;;;6114677;23;20412;-74
2022/10/15 01:45:51;;;;;;;8.90;4.18;;;;;;;;;;6114471;23;20006;-73
2022/10/15 01:48:17;;;;;;;7.75;4.18;;;;;;;;;;6112592;23;20005;-74
2022/10/15 01:50:45;;;;;;;7.95;3.80;;;;;;;;;;6113870;23;20010;-73
2022/10/15 01:53:15;;;;;;;8.98;4.43;;;;;;;;;;6114072;23;20053;-72
2022/10/15 01:55:42;;;;;;;12.57;4.20;;;;;;;;;;6114498;23;20002;-73
2022/10/15 01:58:09;;;;;;;6.72;4.47;;;;;;;;;;6115160;23;20014;-73
2022/10/15 02:00:35;;;;;;;7.50;4.72;;;;;;;;;;6112512;23;19997;-73
2022/10/15 02:03:02;;;;;;;9.90;4.25;;;;;;;;;;6114064;23;20006;-73
2022/10/15 02:05:32;;;;;;;4.80;3.58;;;;;;;;;;6114434;23;20550;-75
2022/10/15 02:08:15;;;;;;;6.90;4.05;;;;;;;;;;6114434;23;20010;-72
2022/10/15 02:10:56;;;;;;;8.40;3.72;;;;;;;;;;6114736;23;20006;-75
2022/10/15 02:13:22;;;;;;;7.97;4.23;;;;;;;;;;6113463;23;20052;-75
2022/10/15 02:16:07;;;;;;;10.55;4.10;;;;;;;;;;6112176;23;20116;-74
2022/10/15 02:18:54;;;;;;;10.30;3.78;;;;;;;;;;6114607;23;20010;-73
2022/10/15 02:21:20;;;;;;;8.85;4.20;;;;;;;;;;6077605;23;20381;-75
2022/10/15 02:23:46;;;;;;;6.47;4.88;;;;;;;;;;6113147;23;20461;-73
2022/10/15 02:26:13;;;;;;;7.38;4.00;;;;;;;;;;6112817;23;20101;-74
2022/10/15 02:28:41;;;;;;;9.65;4.57;;;;;;;;;;6113846;23;19998;-75
2022/10/15 02:31:09;;;;;;;6.75;4.28;;;;;;;;;;6113713;23;20017;-74
2022/10/15 02:33:35;;;;;;;10.23;4.00;;;;;;;;;;6086656;23;20109;-73
2022/10/15 02:36:02;;;;;;;7.13;4.10;;;;;;;;;;6114209;23;20005;-74
2022/10/15 02:38:30;;;;;;;9.85;4.00;;;;;;;;;;6114109;23;20006;-73
2022/10/15 02:40:56;;;;;;;9.48;4.35;;;;;;;;;;6112475;23;20026;-73
2022/10/15 02:43:22;;;;;;;9.68;4.13;;;;;;;;;;6113551;23;20506;-73
2022/10/15 02:45:49;;;;;;;7.93;4.38;;;;;;;;;;6113951;23;20025;-73
2022/10/15 02:48:16;;;;;;;7.82;4.63;;;;;;;;;;6113616;23;20013;-73
2022/10/15 02:50:42;;;;;;;8.07;4.45;;;;;;;;;;6113553;23;20014;-74
2022/10/15 02:53:08;;;;;;;6.95;3.75;;;;;;;;;;6111901;23;20057;-73
2022/10/15 02:55:34;;;;;;;6.68;4.35;;;;;;;;;;6113185;23;20014;-73
2022/10/15 02:58:00;;;;;;;5.85;3.83;;;;;;;;;;6143063;23;20010;-72
2022/10/15 03:00:26;;;;;;;7.35;4.32;;;;;;;;;;6142921;23;20025;-73
2022/10/15 03:02:53;;;;;;;9.23;3.97;;;;;;;;;;6141885;23;20002;-75
2022/10/15 03:05:19;;;;;;;10.98;4.07;;;;;;;;;;6143269;23;20710;-74
2022/10/15 03:07:45;;;;;;;8.60;3.90;;;;;;;;;;6142870;23;20017;-74
2022/10/15 03:10:11;;;;;;;7.18;3.33;;;;;;;;;;6142316;23;20467;-74
2022/10/15 03:12:37;;;;;;;9.98;4.15;;;;;;;;;;6116504;23;20009;-75
2022/10/15 03:15:04;;;;;;;6.55;3.58;;;;;;;;;;6141067;23;20006;-73
2022/10/15 03:17:30;;;;;;;5.88;3.42;;;;;;;;;;6141679;23;20006;-73
2022/10/15 03:19:56;;;;;;;10.35;3.88;;;;;;;;;;6112901;23;20014;-74
2022/10/15 03:22:22;;;;;;;9.95;3.72;;;;;;;;;;6141127;23;20002;-74
2022/10/15 03:24:48;;;;;;;8.80;3.20;;;;;;;;;;6140720;23;20498;-74
2022/10/15 03:27:14;;;;;;;7.20;2.85;;;;;;;;;;6139863;23;20025;-72
2022/10/15 03:29:40;;;;;;;4.88;2.70;;;;;;;;;;6140661;23;20465;-74
2022/10/15 03:32:07;;;;;;;4.65;2.55;;;;;;;;;;6138329;23;20009;-72
2022/10/15 03:34:33;;;;;;;3.50;2.33;;;;;;;;;;6114199;23;20088;-73
2022/10/15 03:36:59;;;;;;;4.57;2.67;;;;;;;;;;6139822;23;20006;-72
2022/10/15 03:39:25;;;;;;;3.53;2.38;;;;;;;;;;6140351;23;20009;-74
2022/10/15 03:41:52;;;;;;;4.43;2.63;;;;;;;;;;6113726;23;20558;-73
2022/10/15 03:44:18;;;;;;;4.10;2.42;;;;;;;;;;6138913;23;20029;-75
2022/10/15 03:46:45;;;;;;;5.85;3.15;;;;;;;;;;6114721;23;20022;-75
2022/10/15 03:49:11;;;;;;;3.95;2.70;;;;;;;;;;6113705;23;20362;-73
2022/10/15 03:51:37;;;;;;;4.95;2.80;;;;;;;;;;6140160;23;20697;-74
2022/10/15 03:54:03;;;;;;;8.50;3.00;;;;;;;;;;6139764;23;20005;-73
2022/10/15 03:56:30;;;;;;;4.57;2.90;;;;;;;;;;6128415;23;20028;-74
2022/10/15 03:58:56;;;;;;;5.80;2.85;;;;;;;;;;6109042;23;20012;-74
2022/10/15 04:01:22;;;;;;;7.30;2.83;;;;;;;;;;6111123;23;20402;-74
2022/10/15 04:03:51;;;;;;;4.53;2.70;;;;;;;;;;6110850;23;20139;-74
2022/10/15 04:06:18;;;;;;;4.85;2.60;;;;;;;;;;6110257;23;20089;-73
2022/10/15 04:08:44;;;;;;;8.70;3.10;;;;;;;;;;6084539;23;20005;-74
2022/10/15 04:11:10;;;;;;;11.48;3.25;;;;;;;;;;6109539;23;20551;-75
2022/10/15 04:13:36;;;;;;;5.18;2.65;;;;;;;;;;6107297;23;20002;-74
2022/10/15 04:16:05;;;;;;;3.47;2.22;;;;;;;;;;6110598;23;20012;-73
2022/10/15 04:18:32;;;;;;;5.07;3.03;;;;;;;;;;6110790;23;20006;-75
2022/10/15 04:20:59;;;;;;;5.70;3.38;;;;;;;;;;6110491;23;20004;-73
2022/10/15 04:23:25;;;;;;;12.98;2.75;;;;;;;;;;6110468;23;20044;-73
2022/10/15 04:25:51;;;;;;;5.40;2.85;;;;;;;;;;6108440;23;20683;-74
2022/10/15 04:28:17;;;;;;;5.65;2.40;;;;;;;;;;6084590;23;20013;-74
2022/10/15 04:30:43;;;;;;;6.13;2.70;;;;;;;;;;6110531;23;20006;-73
2022/10/15 04:33:09;;;;;;;8.85;2.75;;;;;;;;;;6110099;23;20010;-73
2022/10/15 04:35:36;;;;;;;5.40;2.90;;;;;;;;;;6109829;23;20006;-73
2022/10/15 04:38:02;;;;;;;5.18;2.72;;;;;;;;;;6107900;23;20080;-73
2022/10/15 04:40:28;;;;;;;5.70;2.63;;;;;;;;;;6110766;23;20012;-73
2022/10/15 04:42:54;;;;;;;5.45;2.42;;;;;;;;;;6084865;23;20618;-73
2022/10/15 04:45:20;;;;;;;5.20;2.80;;;;;;;;;;6084384;23;20849;-73
2022/10/15 04:47:46;;;;;;;7.25;2.20;;;;;;;;;;6110176;23;20014;-73
2022/10/15 04:50:13;;;;;;;3.53;2.20;;;;;;;;;;6109151;23;20455;-73
2022/10/15 04:52:39;;;;;;;5.13;2.50;;;;;;;;;;6108141;23;20016;-73
2022/10/15 04:55:05;;;;;;;6.60;2.60;;;;;;;;;;6110759;23;20503;-72
2022/10/15 04:57:31;;;;;;;5.70;2.17;;;;;;;;;;6103382;23;20666;-72
2022/10/15 04:59:58;;;;;;;6.30;2.55;;;;;;;;;;6110557;23;20006;-73
2022/10/15 05:02:24;;;;;;;6.63;2.42;;;;;;;;;;6109399;23;20006;-73
2022/10/15 05:04:50;;;;;;;6.43;2.80;;;;;;;;;;6112349;23;20012;-74
2022/10/15 05:07:16;;;;;;;7.53;2.90;;;;;;;;;;6108608;23;20017;-73
2022/10/15 05:09:42;;;;;;;7.00;2.72;;;;;;;;;;6112021;23;20006;-72
2022/10/15 05:12:08;;;;;;;7.45;2.42;;;;;;;;;;6112038;23;20006;-73
2022/10/15 05:14:34;;;;;;;6.40;2.35;;;;;;;;;;6110342;23;20006;-73
2022/10/15 05:17:01;;;;;;;7.82;2.67;;;;;;;;;;6110495;23;20010;-74
2022/10/15 05:19:27;;;;;;;3.90;2.08;;;;;;;;;;6112777;23;20002;-72
2022/10/15 05:21:53;;;;;;;4.50;2.53;;;;;;;;;;6112493;23;20014;-72
2022/10/15 05:24:19;;;;;;;5.47;2.00;;;;;;;;;;6112378;23;20001;-73
2022/10/15 05:26:45;;;;;;;4.47;2.55;;;;;;;;;;6109216;23;20018;-73
2022/10/15 05:29:11;;;;;;;4.13;2.40;;;;;;;;;;6111649;23;20580;-73
2022/10/15 05:31:38;;;;;;;5.78;2.50;;;;;;;;;;6112503;23;20210;-72
2022/10/15 05:34:08;;;;;;;9.13;2.40;;;;;;;;;;6112070;23;20009;-72
2022/10/15 05:36:35;;;;;;;7.20;2.70;;;;;;;;;;6110154;23;20073;-73
2022/10/15 05:39:02;;;;;;;6.40;2.67;;;;;;;;;;6110860;23;20072;-72
2022/10/15 05:41:29;;;;;;;5.63;2.53;;;;;;;;;;6112184;23;20391;-72
2022/10/15 05:43:57;;;;;;;8.27;2.55;;;;;;;;;;6112366;23;20053;-73
2022/10/15 05:46:23;;;;;;;4.25;2.30;;;;;;;;;;6109900;23;20042;-72
2022/10/15 05:48:52;;;;;;;6.47;2.78;;;;;;;;;;6111195;23;19998;-72
2022/10/15 05:51:18;;;;;;;5.95;2.47;;;;;;;;;;6111875;23;20010;-75
2022/10/15 05:53:45;;;;;;;7.90;2.90;;;;;;;;;;6112062;23;20002;-74
2022/10/15 05:56:12;;;;;;;4.63;2.63;;;;;;;;;;6111912;23;20358;-72
2022/10/15 05:58:38;;;;;;;5.95;2.47;;;;;;;;;;6110524;23;20127;-72
2022/10/15 06:01:05;;;;;;;7.35;3.08;;;;;;;;;;6111416;23;20532;-72
2022/10/15 06:03:31;;;;;;;7.32;2.67;;;;;;;;;;6111800;23;20102;-72
2022/10/15 06:05:58;;;;;;;8.70;3.00;;;;;;;;;;6111269;23;20103;-73
2022/10/15 06:08:24;;;;;;;4.15;2.83;;;;;;;;;;6085137;23;20351;-73
2022/10/15 06:10:50;;;;;;;5.72;3.15;;;;;;;;;;6085320;23;20006;-73
2022/10/15 06:13:16;;;;;;;7.20;3.30;;;;;;;;;;6109557;23;20064;-73
2022/10/15 06:15:44;;;;;;;5.60;2.97;;;;;;;;;;6109088;23;20008;-74
2022/10/15 06:18:15;;;;;;;7.20;3.53;;;;;;;;;;6111799;23;20100;-74
2022/10/15 06:20:41;;;;;;;8.38;3.00;;;;;;;;;;6110338;23;20162;-74
2022/10/15 06:23:09;;;;;;;3.53;2.60;;;;;;;;;;6110269;23;20006;-72
2022/10/15 06:25:35;;;;;;;10.80;3.08;;;;;;;;;;6084032;23;20800;-74
2022/10/15 06:28:05;;;;;;;8.48;3.13;;;;;;;;;;6108761;23;20630;-73
2022/10/15 06:30:31;;;;;;;7.32;3.03;;;;;;;;;;6110835;23;20010;-73
2022/10/15 06:32:58;;;;;;;4.47;2.75;;;;;;;;;;6110459;23;20009;-73
2022/10/15 06:35:24;;;;;;;5.95;2.92;;;;;;;;;;6110790;23;20462;-75
2022/10/15 06:37:50;;;;;;;5.38;3.15;;;;;;;;;;6109809;23;20010;-72
2022/10/15 06:40:17;;;;;;;7.18;2.80;;;;;;;;;;6108916;23;20474;-73
2022/10/15 06:42:43;;;;;;;5.70;2.60;;;;;;;;;;6084248;23;20013;-73
2022/10/15 06:45:10;;;;;;;4.15;2.85;;;;;;;;;;6109743;23;20013;-73
2022/10/15 06:47:37;;;;;;;4.95;3.53;;;;;;;;;;6108902;23;20025;-72
2022/10/15 06:50:04;;;;;;;5.90;3.55;;;;;;;;;;6110311;23;20001;-74
2022/10/15 06:52:31;;;;;;;9.38;4.10;;;;;;;;;;6083652;23;20097;-74
2022/10/15 06:54:57;;;;;;;7.13;3.10;;;;;;;;;;6110381;23;20053;-74
2022/10/15 06:57:26;;;;;;;11.50;3.80;;;;;;;;;;6110957;23;20022;-72
2022/10/15 06:59:52;;;;;;;7.55;3.55;;;;;;;;;;6109639;23;20101;-74
2022/10/15 07:02:18;;;;;;;6.30;3.33;;;;;;;;;;6109924;23;20016;-74
2022/10/15 07:04:47;;;;;;;7.40;3.97;;;;;;;;;;6110257;23;20085;-76
2022/10/15 07:07:14;;;;;;;4.30;2.78;;;;;;;;;;6110746;23;20024;-76
2022/10/15 07:09:40;;;;;;;6.80;3.65;;;;;;;;;;6110543;23;20085;-77
2022/10/15 07:12:07;;;;;;;7.75;4.07;;;;;;;;;;6085157;23;20338;-76
2022/10/15 07:14:33;;;;;;;7.10;4.10;;;;;;;;;;6106129;23;20009;-76
2022/10/15 07:16:59;;;;;;;6.05;4.22;;;;;;;;;;6110787;23;20006;-74
2022/10/15 07:19:27;;;;;;;6.47;4.18;;;;;;;;;;6084860;23;20557;-74
2022/10/15 07:21:53;;;;;;;5.47;3.53;;;;;;;;;;6110517;23;20002;-74
2022/10/15 07:24:20;;;;;;;5.25;3.40;;;;;;;;;;6109280;23;20160;-75
2022/10/15 07:26:49;;;;;;;6.65;2.53;;;;;;;;;;6112257;23;20424;-73
2022/10/15 07:29:15;;;;;;;5.43;2.55;;;;;;;;;;6113566;23;20010;-74
2022/10/15 07:31:42;;;;;;;9.32;2.70;;;;;;;;;;6111790;23;20116;-74
2022/10/15 07:34:08;;;;;;;7.45;2.63;;;;;;;;;;6111857;23;20037;-73
2022/10/15 07:36:34;;;;;;;9.13;2.40;;;;;;;;;;6112260;23;20448;-73
2022/10/15 07:39:00;;;;;;;6.93;2.55;;;;;;;;;;6109998;23;20002;-74
2022/10/15 07:41:27;;;;;;;5.78;2.10;;;;;;;;;;6113762;23;20006;-75
2022/10/15 07:43:53;;;;;;;6.63;2.25;;;;;;;;;;6087601;23;20095;-74
2022/10/15 07:46:19;;;;;;;8.85;2.30;;;;;;;;;;6110413;23;20017;-73
2022/10/15 07:48:45;;;;;;;7.70;2.22;;;;;;;;;;6112503;23;20699;-73
2022/10/15 07:51:12;;;;;;;6.85;2.20;;;;;;;;;;6112281;23;20009;-73
2022/10/15 07:53:38;;;;;;;10.35;2.10;;;;;;;;;;6111628;23;20002;-73
2022/10/15 07:56:06;;;;;;;8.80;2.00;;;;;;;;;;6112850;23;20036;-73
2022/10/15 07:58:33;;;;;;;7.72;2.67;;;;;;;;;;6110988;23;20486;-73
2022/10/15 08:01:00;;;;;;;6.70;2.38;;;;;;;;;;6112847;23;20060;-75
2022/10/15 08:03:27;;;;;;;8.40;2.75;;;;;;;;;;6111425;23;20002;-73
2022/10/15 08:05:54;;;;;;;4.40;2.10;;;;;;;;;;6110307;23;20037;-74
2022/10/15 08:08:21;;;;;;;9.75;2.58;;;;;;;;;;6113260;23;20012;-73
2022/10/15 08:10:47;;;;;;;6.20;2.00;;;;;;;;;;6111242;23;20014;-74
2022/10/15 08:13:13;;;;;;;7.63;2.05;;;;;;;;;;6112632;23;20571;-73
2022/10/15 08:15:40;;;;;;;6.35;1.80;;;;;;;;;;6112381;23;20005;-75
2022/10/15 08:18:07;;;;;;;5.57;1.67;;;;;;;;;;6086273;23;20010;-74
2022/10/15 08:20:33;;;;;;;6.75;2.17;;;;;;;;;;6111872;23;20001;-74
2022/10/15 08:22:59;;;;;;;4.07;1.65;;;;;;;;;;6083155;23;20029;-73
2022/10/15 08:25:25;;;;;;;3.22;1.48;;;;;;;;;;6109625;23;20681;-73
2022/10/15 08:27:53;;;;;;;3.95;1.95;;;;;;;;;;6109488;23;20061;-73
2022/10/15 08:30:19;;;;;;;3.65;1.52;;;;;;;;;;6109299;23;20006;-72
2022/10/15 08:32:45;;;;;;;3.15;1.45;;;;;;;;;;6109439;23;20010;-73
2022/10/15 08:35:11;;;;;;;3.85;1.75;;;;;;;;;;6108989;23;20005;-74
2022/10/15 08:37:38;;;;;;;3.65;1.30;;;;;;;;;;6108071;23;20006;-73
2022/10/15 08:40:06;;;;;;;3.38;1.83;;;;;;;;;;6084821;23;20001;-73
2022/10/15 08:42:37;;;;;;;4.10;1.33;;;;;;;;;;6111992;23;20032;-73
2022/10/15 08:45:05;;;;;;;2.85;1.48;;;;;;;;;;6112515;23;20005;-73
2022/10/15 08:47:37;;;;;;;3.35;1.50;;;;;;;;;;6110829;23;20068;-74
2022/10/15 08:50:12;;;;;;;3.08;1.40;;;;;;;;;;6113368;23;20002;-73
2022/10/15 08:52:45;;;;;;;3.25;1.63;;;;;;;;;;6086916;23;20010;-73
2022/10/15 08:55:13;;;;;;;2.95;1.90;;;;;;;;;;6112328;23;20085;-74
2022/10/15 08:57:39;;;;;;;2.72;1.98;;;;;;;;;;6112747;23;20029;-74
2022/10/15 09:00:11;;;;;;;3.58;1.92;;;;;;;;;;6111929;23;20041;-74
2022/10/15 09:02:42;;;;;;;4.50;1.90;;;;;;;;;;6112611;23;20004;-74
2022/10/15 09:05:14;;;;;;;6.43;1.60;;;;;;;;;;6113187;23;20415;-72
2022/10/15 09:07:59;;;;;;;2.45;1.35;;;;;;;;;;6086593;23;20018;-73
2022/10/15 09:10:36;;;;;;;3.55;1.48;;;;;;;;;;6106530;23;20006;-74
2022/10/15 09:13:02;;;;;;;3.92;1.50;;;;;;;;;;6111129;23;20002;-74
2022/10/15 09:15:32;;;;;;;5.97;1.58;;;;;;;;;;6111710;23;20081;-74
2022/10/15 09:17:58;;;;;;;3.92;1.50;;;;;;;;;;6111946;23;20049;-74
2022/10/15 09:20:26;;;;;;;3.45;1.40;;;;;;;;;;6111203;23;20133;-74
2022/10/15 09:22:52;;;;;;;5.80;1.63;;;;;;;;;;6111721;23;19998;-74
2022/10/15 09:25:20;;;;;;;4.28;1.80;;;;;;;;;;6106628;23;20064;-73
2022/10/15 09:27:47;;;;;;;5.63;2.13;;;;;;;;;;6108854;23;20033;-74
2022/10/15 09:30:35;;;;;;;3.40;1.65;;;;;;;;;;6110223;23;20009;-73
2022/10/15 09:33:17;;;;;;;8.02;1.90;;;;;;;;;;6112211;23;20053;-74
2022/10/15 09:35:47;;;;;;;3.80;1.70;;;;;;;;;;6111663;23;20076;-74
2022/10/15 09:38:16;;;;;;;3.40;1.70;;;;;;;;;;6109056;23;20008;-73
2022/10/15 09:40:45;;;;;;;5.03;2.20;;;;;;;;;;6111213;23;20008;-73
2022/10/15 09:43:12;;;;;;;6.45;2.15;;;;;;;;;;6112821;23;20012;-74
2022/10/15 09:45:39;;;;;;;6.40;1.98;;;;;;;;;;6113003;23;20030;-73
2022/10/15 09:48:13;;;;;;;3.22;2.15;;;;;;;;;;6111737;23;20013;-73
2022/10/15 09:50:42;;;;;;;4.90;1.80;;;;;;;;;;6088234;23;20447;-73
2022/10/15 09:53:27;;;;;;;8.90;2.10;;;;;;;;;;6114071;23;20650;-74
2022/10/15 09:56:02;;;;;;;7.82;2.35;;;;;;;;;;6112605;23;20012;-73
2022/10/15 09:58:30;;;;;;;3.90;1.90;;;;;;;;;;6114187;23;20002;-73
2022/10/15 10:01:07;;;;;;;8.75;2.15;;;;;;;;;;6112966;23;20447;-73
2022/10/15 10:03:34;;;;;;;5.32;1.92;;;;;;;;;;6112294;23;20002;-74
2022/10/15 10:06:01;;;;;;;5.57;2.22;;;;;;;;;;6111540;23;19998;-73
2022/10/15 10:08:28;;;;;;;7.22;2.22;;;;;;;;;;6114098;23;20601;-75
2022/10/15 10:10:56;;;;;;;7.82;2.20;;;;;;;;;;6114054;23;20002;-73
2022/10/15 10:13:24;;;;;;;9.93;3.05;;;;;;;;;;6113498;23;20056;-73
2022/10/15 10:15:52;;;;;;;4.28;2.03;;;;;;;;;;6112053;23;20001;-72
2022/10/15 10:18:19;;;;;;;8.57;2.10;;;;;;;;;;6113671;23;20085;-74
2022/10/15 10:21:00;;;;;;;9.98;2.00;;;;;;;;;;6114276;23;20026;-74
2022/10/15 10:23:44;;;;;;;5.35;2.13;;;;;;;;;;6113815;23;20017;-73
2022/10/15 10:26:10;;;;;;;4.10;2.05;;;;;;;;;;6113386;23;20014;-73
2022/10/15 10:28:37;;;;;;;4.75;2.00;;;;;;;;;;6112063;23;20002;-73
2022/10/15 10:31:05;;;;;;;7.85;1.83;;;;;;;;;;6113887;23;20002;-72
2022/10/15 10:33:31;;;;;;;5.90;1.98;;;;;;;;;;6088080;23;20313;-74
2022/10/15 10:35:58;;;;;;;4.68;1.98;;;;;;;;;;6114316;23;20335;-73
2022/10/15 10:38:25;;;;;;;6.82;2.30;;;;;;;;;;6113981;23;19994;-73
2022/10/15 10:40:52;;;;;;;7.30;1.70;;;;;;;;;;6112784;23;20006;-73
2022/10/15 10:43:24;;;;;;;4.68;2.00;;;;;;;;;;6114047;23;20400;-73
2022/10/15 10:46:03;;;;;;;3.33;1.60;;;;;;;;;;6088426;23;20037;-73
2022/10/15 10:48:29;;;;;;;5.13;1.85;;;;;;;;;;6115206;23;20033;-73
2022/10/15 10:51:03;;;;;;;6.40;2.90;;;;;;;;;;6113548;23;20154;-74
2022/10/15 10:53:29;;;;;;;7.38;2.03;;;;;;;;;;6112936;23;20017;-74
2022/10/15 10:55:57;;;;;;;5.22;2.13;;;;;;;;;;6112158;23;20022;-73
2022/10/15 10:58:24;;;;;;;5.60;2.22;;;;;;;;;;6113594;23;20038;-73
2022/10/15 11:00:51;;;;;;;5.35;1.98;;;;;;;;;;6113611;23;20013;-73
2022/10/15 11:03:30;;;;;;;7.57;2.10;;;;;;;;;;6113774;23;20479;-73
2022/10/15 11:06:08;;;;;;;5.93;2.00;;;;;;;;;;6111716;23;20002;-73
2022/10/15 11:08:44;;;;;;;12.73;2.33;;;;;;;;;;6113653;23;20085;-73
2022/10/15 11:11:10;;;;;;;6.55;1.98;;;;;;;;;;6114042;23;20060;-72
2022/10/15 11:13:46;;;;;;;16.40;3.47;;;;;;;;;;6112969;23;20002;-72
2022/10/15 11:16:28;;;;;;;6.28;2.33;;;;;;;;;;6112514;23;20006;-73
2022/10/15 11:19:11;;;;;;;3.63;1.98;;;;;;;;;;6113637;23;20017;-73
2022/10/15 11:22:02;;;;;;;8.38;2.40;;;;;;;;;;6113797;23;19982;-72
2022/10/15 11:24:43;;;;;;;7.35;2.17;;;;;;;;;;6111402;23;20005;-73
2022/10/15 11:27:18;;;;;;;5.43;2.33;;;;;;;;;;6113619;23;20014;-73
2022/10/15 11:30:10;;;;;;;5.15;2.05;;;;;;;;;;6110091;23;20104;-75
2022/10/15 11:32:55;;;;;;;3.28;1.73;;;;;;;;;;6110316;23;20353;-73
2022/10/15 11:35:35;;;;;;;6.90;2.03;;;;;;;;;;6087467;23;20018;-73
2022/10/15 11:38:01;;;;;;;5.00;2.80;;;;;;;;;;6113542;23;20300;-73
2022/10/15 11:40:31;;;;;;;7.07;2.30;;;;;;;;;;6113335;23;20013;-73
2022/10/15 11:43:10;;;;;;;4.82;1.77;;;;;;;;;;6113025;23;20084;-73
2022/10/15 11:45:42;;;;;;;9.63;3.03;;;;;;;;;;6111588;23;20006;-73
2022/10/15 11:48:11;;;;;;;6.72;2.30;;;;;;;;;;6112642;23;20014;-73
2022/10/15 11:50:46;;;;;;;3.60;1.70;;;;;;;;;;6112748;23;20002;-73
2022/10/15 11:53:15;;;;;;;5.22;2.38;;;;;;;;;;6113538;23;20012;-73
2022/10/15 11:55:44;;;;;;;5.40;1.85;;;;;;;;;;6111280;23;20064;-73
2022/10/15 11:58:16;;;;;;;5.88;2.35;;;;;;;;;;6113734;23;20002;-73
2022/10/15 12:00:46;;;;;;;7.05;2.33;;;;;;;;;;6112983;23;20006;-72
2022/10/15 12:03:19;;;;;;;4.53;1.85;;;;;;;;;;6085960;23;19998;-73
2022/10/15 12:05:48;;;;;;;5.55;2.15;;;;;;;;;;6114112;23;20006;-73
2022/10/15 12:08:15;;;;;;;4.63;1.90;;;;;;;;;;6112801;23;20029;-73
2022/10/15 12:10:41;;;;;;;10.25;3.00;;;;;;;;;;6113158;23;20013;-73
2022/10/15 12:13:15;;;;;;;6.45;2.22;;;;;;;;;;6110667;23;20625;-73
2022/10/15 12:15:45;;;;;;;8.88;2.17;;;;;;;;;;6113351;23;20005;-73
2022/10/15 12:18:46;;;;;;;5.72;2.28;;;;;;;;;;6113126;23;20494;-72
2022/10/15 12:21:32;;;;;;;8.15;2.08;;;;;;;;;;5994631;23;20007;-73
2022/10/15 12:23:58;;;;;;;5.15;1.90;;;;;;;;;;6103097;23;20010;-72
2022/10/15 12:26:24;;;;;;;7.00;1.90;;;;;;;;;;6113452;23;20006;-73
2022/10/15 12:28:52;;;;;;;7.57;2.15;;;;;;;;;;6113143;23;20423;-74
2022/10/15 12:31:22;;;;;;;8.73;2.40;;;;;;;;;;6112951;23;20382;-73
2022/10/15 12:33:56;;;;;;;5.93;2.03;;;;;;;;;;6113510;23;20013;-73
2022/10/15 12:36:26;;;;;;;6.68;1.95;;;;;;;;;;6110572;23;20208;-73
2022/10/15 12:39:05;;;;;;;6.75;2.55;;;;;;;;;;6087808;23;20321;-74
2022/10/15 12:41:50;;;;;;;6.75;2.72;;;;;;;;;;6112800;23;20021;-73
2022/10/15 12:44:30;;;;;;;5.10;2.55;;;;;;;;;;6110849;23;20002;-73
2022/10/15 12:46:56;;;;;;;6.60;2.40;;;;;;;;;;6113188;23;20021;-73
2022/10/15 12:49:26;;;;;;;7.47;2.05;;;;;;;;;;6112944;23;20006;-74
2022/10/15 12:51:55;;;;;;;5.60;2.00;;;;;;;;;;6113220;23;20727;-73
2022/10/15 12:54:36;;;;;;;6.30;2.22;;;;;;;;;;6112158;23;20364;-74
2022/10/15 12:57:03;;;;;;;6.97;2.25;;;;;;;;;;6112134;23;20033;-73
2022/10/15 12:59:49;;;;;;;9.07;2.20;;;;;;;;;;6111103;23;20002;-74
2022/10/15 13:02:36;;;;;;;6.72;2.17;;;;;;;;;;6112485;23;20010;-74
2022/10/15 13:05:03;;;;;;;5.45;2.10;;;;;;;;;;6112174;23;20033;-74
2022/10/15 13:07:31;;;;;;;6.05;2.10;;;;;;;;;;6112633;23;20044;-74
2022/10/15 13:09:58;;;;;;;5.43;2.00;;;;;;;;;;6110921;23;20009;-74
2022/10/15 13:12:26;;;;;;;5.63;2.42;;;;;;;;;;6113801;23;20009;-74
2022/10/15 13:14:56;;;;;;;5.40;1.92;;;;;;;;;;6087055;23;20006;-74
2022/10/15 13:17:22;;;;;;;6.70;2.80;;;;;;;;;;6112683;23;20002;-74
2022/10/15 13:19:56;;;;;;;6.13;1.83;;;;;;;;;;6110803;23;20006;-73
2022/10/15 13:22:24;;;;;;;3.40;1.88;;;;;;;;;;6111951;23;20129;-74
2022/10/15 13:24:50;;;;;;;5.10;2.00;;;;;;;;;;6087250;23;20006;-73
2022/10/15 13:27:22;;;;;;;7.70;2.35;;;;;;;;;;6112174;23;20096;-73
2022/10/15 13:29:56;;;;;;;4.47;1.75;;;;;;;;;;6115420;23;20009;-74
2022/10/15 13:32:22;;;;;;;4.03;1.85;;;;;;;;;;6114110;23;19998;-74
2022/10/15 13:34:48;;;;;;;6.47;2.30;;;;;;;;;;6113763;23;20002;-73
2022/10/15 13:37:20;;;;;;;5.78;1.92;;;;;;;;;;6113463;23;20005;-74
2022/10/15 13:39:49;;;;;;;6.15;2.10;;;;;;;;;;6115080;23;20006;-75
2022/10/15 13:42:17;;;;;;;6.07;1.85;;;;;;;;;;6115639;23;20459;-74
2022/10/15 13:44:44;;;;;;;5.57;1.90;;;;;;;;;;6089417;23;20016;-75
2022/10/15 13:47:30;;;;;;;5.65;2.33;;;;;;;;;;6089439;23;20542;-75
2022/10/15 13:50:15;;;;;;;8.15;2.30;;;;;;;;;;6114478;23;20002;-74
2022/10/15 13:52:43;;;;;;;4.90;2.20;;;;;;;;;;6114658;23;20002;-74
2022/10/15 13:55:20;;;;;;;6.53;2.00;;;;;;;;;;6113918;23;20013;-74
2022/10/15 13:57:47;;;;;;;4.40;2.42;;;;;;;;;;6115454;23;20024;-74
2022/10/15 14:00:24;;;;;;;6.40;2.47;;;;;;;;;;6113781;23;20006;-73
2022/10/15 14:03:14;;;;;;;3.97;2.13;;;;;;;;;;6112798;23;20002;-74
2022/10/15 14:05:40;;;;;;;4.55;2.13;;;;;;;;;;6113599;23;20022;-74
2022/10/15 14:08:14;;;;;;;6.18;2.83;;;;;;;;;;6088497;23;20034;-73
2022/10/15 14:10:40;;;;;;;6.55;2.28;;;;;;;;;;6113527;23;20009;-73
2022/10/15 14:13:08;;;;;;;6.43;2.38;;;;;;;;;;6116552;23;20016;-73
2022/10/15 14:15:41;;;;;;;5.70;2.30;;;;;;;;;;6112082;23;20025;-73
2022/10/15 14:18:07;;;;;;;4.45;1.88;;;;;;;;;;6114198;23;20085;-74
2022/10/15 14:20:33;;;;;;;8.30;2.40;;;;;;;;;;6114148;23;20081;-74
2022/10/15 14:22:59;;;;;;;3.97;1.98;;;;;;;;;;6114026;23;20017;-74
2022/10/15 14:25:26;;;;;;;4.40;1.77;;;;;;;;;;6114689;23;20068;-73
2022/10/15 14:27:52;;;;;;;4.80;2.05;;;;;;;;;;6111531;23;20006;-73
2022/10/15 14:30:32;;;;;;;3.60;1.90;;;;;;;;;;6113059;23;20005;-73
2022/10/15 14:32:58;;;;;;;6.20;2.55;;;;;;;;;;6087870;23;20014;-73
2022/10/15 14:35:35;;;;;;;4.72;1.98;;;;;;;;;;6113875;23;20006;-74
2022/10/15 14:38:05;;;;;;;6.88;1.98;;;;;;;;;;6112077;23;20615;-73
2022/10/15 14:40:31;;;;;;;3.85;1.98;;;;;;;;;;6088177;23;20476;-72
2022/10/15 14:43:04;;;;;;;4.55;2.05;;;;;;;;;;6114726;23;20356;-74
2022/10/15 14:45:33;;;;;;;8.10;2.35;;;;;;;;;;6113681;23;20158;-74
2022/10/15 14:48:01;;;;;;;5.18;2.35;;;;;;;;;;6112579;23;20021;-74
2022/10/15 14:50:31;;;;;;;9.85;2.35;;;;;;;;;;6114063;23;20305;-74
2022/10/15 14:52:58;;;;;;;6.22;2.20;;;;;;;;;;6114155;23;20517;-74
2022/10/15 14:55:24;;;;;;;4.07;1.92;;;;;;;;;;6112407;23;20081;-74